createdAt,value
2019-03-21T00:01:44.466Z,70.72
2019-03-21T00:04:14.699Z,70.87
2019-03-21T00:06:43.199Z,70.78
2019-03-21T00:09:14.407Z,72.15
2019-03-21T00:12:00.409Z,71.02
2019-03-21T00:14:32.303Z,72.28
2019-03-21T00:17:01.305Z,70.91
2019-03-21T00:19:29.803Z,70.74
2019-03-21T00:21:58.268Z,71.35
2019-03-21T00:24:26.766Z,71.14
2019-03-21T00:26:55.225Z,70.91
2019-03-21T00:29:23.713Z,71.03
2019-03-21T00:31:52.211Z,71.26
2019-03-21T00:34:20.709Z,73.06
2019-03-21T00:36:49.184Z,72.99
2019-03-21T00:39:17.709Z,74.11
2019-03-21T00:41:46.194Z,72.90
2019-03-21T00:44:18.381Z,71.74
2019-03-21T00:46:44.893Z,72.43
2019-03-21T00:49:13.386Z,72.45
2019-03-21T00:51:41.854Z,72.38
2019-03-21T00:54:10.353Z,71.78
2019-03-21T00:56:38.901Z,75.27
2019-03-21T00:59:07.745Z,72.87
2019-03-21T01:01:36.245Z,74.52
2019-03-21T01:04:04.976Z,73.11
2019-03-21T01:06:33.516Z,73.12
2019-03-21T01:09:01.981Z,72.95
2019-03-21T01:11:30.464Z,73.80
2019-03-21T01:13:58.936Z,73.11
2019-03-21T01:16:27.425Z,74.56
2019-03-21T01:18:55.899Z,73.46
2019-03-21T01:21:24.382Z,73.62
2019-03-21T01:23:52.940Z,73.42
2019-03-21T01:26:21.398Z,73.97
2019-03-21T01:28:49.862Z,74.54
2019-03-21T01:31:18.373Z,73.62
2019-03-21T01:33:46.865Z,74.55
2019-03-21T01:36:15.344Z,74.16
2019-03-21T01:38:43.826Z,75.97
2019-03-21T01:41:16.745Z,74.32
2019-03-21T01:43:45.221Z,76.52
2019-03-21T01:46:16.774Z,74.79
2019-03-21T01:48:45.666Z,74.87
2019-03-21T01:51:14.169Z,75.93
2019-03-21T01:53:42.639Z,75.41
2019-03-21T01:56:11.146Z,74.74
2019-03-21T01:58:39.622Z,74.58
2019-03-21T02:01:08.971Z,74.94
2019-03-21T02:03:37.633Z,75.03
2019-03-21T02:06:06.129Z,75.92
2019-03-21T02:08:34.622Z,75.16
2019-03-21T02:11:03.191Z,78.67
2019-03-21T02:13:31.662Z,75.92
2019-03-21T02:16:00.160Z,76.66
2019-03-21T02:18:28.625Z,76.47
2019-03-21T02:20:57.117Z,78.39
2019-03-21T02:23:25.955Z,76.02
2019-03-21T02:25:54.449Z,76.01
2019-03-21T02:28:22.909Z,75.69
2019-03-21T02:30:52.928Z,78.13
2019-03-21T02:33:27.246Z,76.72
2019-03-21T02:35:55.729Z,77.82
2019-03-21T02:38:24.211Z,78.09
2019-03-21T02:40:55.586Z,77.65
2019-03-21T02:43:24.043Z,77.00
2019-03-21T02:45:52.526Z,76.55
2019-03-21T02:48:21.005Z,77.72
2019-03-21T02:50:49.492Z,78.20
2019-03-21T02:53:17.965Z,77.17
2019-03-21T02:55:46.452Z,76.57
2019-03-21T02:58:14.942Z,78.29
2019-03-21T03:00:46.820Z,78.42
2019-03-21T03:03:15.312Z,77.81
2019-03-21T03:05:43.807Z,77.53
2019-03-21T03:08:12.293Z,77.62
2019-03-21T03:10:43.820Z,76.99
2019-03-21T03:13:12.374Z,79.19
2019-03-21T03:15:41.778Z,77.29
2019-03-21T03:18:12.412Z,77.81
2019-03-21T03:20:40.894Z,77.25
2019-03-21T03:23:09.407Z,78.40
2019-03-21T03:25:37.926Z,79.50
2019-03-21T03:28:30.712Z,78.48
2019-03-21T03:30:59.637Z,77.29
2019-03-21T03:33:28.663Z,77.56
2019-03-21T03:35:57.111Z,77.83
2019-03-21T03:38:25.611Z,77.80
2019-03-21T03:41:14.570Z,77.92
2019-03-21T03:43:43.049Z,77.82
2019-03-21T03:46:11.617Z,79.16
2019-03-21T03:48:40.087Z,77.06
2019-03-21T03:51:08.560Z,78.37
2019-03-21T03:53:37.068Z,77.86
2019-03-21T03:56:05.537Z,78.64
2019-03-21T03:58:42.395Z,77.57
2019-03-21T04:01:10.934Z,78.77
2019-03-21T04:03:39.416Z,78.52
2019-03-21T04:06:07.969Z,78.98
2019-03-21T04:08:36.528Z,78.32
2019-03-21T04:11:05.132Z,79.45
2019-03-21T04:13:33.617Z,78.85
2019-03-21T04:16:02.103Z,78.59
2019-03-21T04:18:30.601Z,77.00
2019-03-21T04:21:05.554Z,76.87
2019-03-21T04:23:34.041Z,78.25
2019-03-21T04:26:17.911Z,77.58
2019-03-21T04:28:46.394Z,77.94
2019-03-21T04:31:14.872Z,76.56
2019-03-21T04:33:45.204Z,76.79
2019-03-21T04:36:13.738Z,76.78
2019-03-21T04:38:42.296Z,76.57
2019-03-21T04:41:10.786Z,76.75
2019-03-21T04:43:39.262Z,77.80
2019-03-21T04:46:07.740Z,76.77
2019-03-21T04:48:36.243Z,78.52
2019-03-21T04:51:04.777Z,76.86
2019-03-21T04:53:33.299Z,77.20
2019-03-21T04:56:01.768Z,77.00
2019-03-21T04:58:30.255Z,77.18
2019-03-21T05:00:59.560Z,77.11
2019-03-21T05:03:32.559Z,77.06
2019-03-21T05:06:01.041Z,78.32
2019-03-21T05:08:29.540Z,77.34
2019-03-21T05:10:58.005Z,77.03
2019-03-21T05:13:26.499Z,76.71
2019-03-21T05:15:55.349Z,77.81
2019-03-21T05:18:26.886Z,77.32
2019-03-21T05:20:55.358Z,77.46
2019-03-21T05:23:23.841Z,77.45
2019-03-21T05:25:52.302Z,77.99
2019-03-21T05:28:20.801Z,77.40
2019-03-21T05:30:52.289Z,77.20
2019-03-21T05:33:20.791Z,77.18
2019-03-21T05:35:49.258Z,77.56
2019-03-21T05:38:19.598Z,77.62
2019-03-21T05:40:48.076Z,77.46
2019-03-21T05:43:22.551Z,77.56
2019-03-21T05:45:51.169Z,77.56
2019-03-21T05:48:19.668Z,77.61
2019-03-21T05:50:48.138Z,77.90
2019-03-21T05:53:16.632Z,77.34
2019-03-21T05:55:45.106Z,77.34
2019-03-21T05:58:13.596Z,77.77
2019-03-21T06:00:45.440Z,77.66
2019-03-21T06:03:16.942Z,78.08
2019-03-21T06:05:51.134Z,78.28
2019-03-21T06:08:23.378Z,78.28
2019-03-21T06:10:51.858Z,77.78
2019-03-21T06:13:20.355Z,78.29
2019-03-21T06:15:48.836Z,78.00
2019-03-21T06:18:32.149Z,78.77
2019-03-21T06:21:15.828Z,77.41
2019-03-21T06:23:55.912Z,78.34
2019-03-21T06:26:39.302Z,78.13
2019-03-21T06:29:07.790Z,77.32
2019-03-21T06:31:36.276Z,77.70
2019-03-21T06:34:04.843Z,77.30
2019-03-21T06:36:33.306Z,78.05
2019-03-21T06:39:01.803Z,77.31
2019-03-21T06:41:30.266Z,78.25
2019-03-21T06:43:58.777Z,79.56
2019-03-21T06:46:27.254Z,79.01
2019-03-21T06:48:55.734Z,78.55
2019-03-21T06:51:24.222Z,78.76
2019-03-21T06:53:52.693Z,77.54
2019-03-21T06:56:21.185Z,79.52
2019-03-21T06:58:49.657Z,77.87
2019-03-21T07:01:18.148Z,79.09
2019-03-21T07:03:46.621Z,78.05
2019-03-21T07:06:15.111Z,78.77
2019-03-21T07:08:43.589Z,77.83
2019-03-21T07:11:12.082Z,78.84
2019-03-21T07:13:40.561Z,78.40
2019-03-21T07:16:09.469Z,78.53
2019-03-21T07:18:38.106Z,78.46
2019-03-21T07:21:06.605Z,77.35
2019-03-21T07:23:35.085Z,78.27
2019-03-21T07:26:03.583Z,78.42
2019-03-21T07:28:32.049Z,78.30
2019-03-21T07:31:00.546Z,78.45
2019-03-21T07:33:29.026Z,78.30
2019-03-21T07:35:57.509Z,78.72
2019-03-21T07:38:25.989Z,78.46
2019-03-21T07:40:54.469Z,78.00
2019-03-21T07:43:22.951Z,77.80
2019-03-21T07:45:51.436Z,78.47
2019-03-21T07:48:19.910Z,78.58
2019-03-21T07:50:48.404Z,77.74
2019-03-21T07:53:16.883Z,77.83
2019-03-21T07:55:45.366Z,77.82
2019-03-21T07:58:13.842Z,77.74
2019-03-21T08:00:42.312Z,78.44
2019-03-21T08:03:10.810Z,78.03
2019-03-21T08:05:40.519Z,78.29
2019-03-21T08:08:09.365Z,78.11
2019-03-21T08:10:37.834Z,77.72
2019-03-21T08:13:06.341Z,78.08
2019-03-21T08:15:34.851Z,78.02
2019-03-21T08:18:03.340Z,78.50
2019-03-21T08:20:31.815Z,78.28
2019-03-21T08:23:00.317Z,78.18
2019-03-21T08:25:28.813Z,78.08
2019-03-21T08:27:57.302Z,78.29
2019-03-21T08:30:34.079Z,77.90
2019-03-21T08:33:03.320Z,78.04
2019-03-21T08:35:32.367Z,79.06
2019-03-21T08:38:00.915Z,78.67
2019-03-21T08:40:29.395Z,78.49
2019-03-21T08:42:57.883Z,78.46
2019-03-21T08:45:26.358Z,78.60
2019-03-21T08:47:54.912Z,79.27
2019-03-21T08:50:23.400Z,79.18
2019-03-21T08:52:51.894Z,78.59
2019-03-21T08:55:20.377Z,80.35
2019-03-21T08:57:48.874Z,79.57
2019-03-21T09:00:17.494Z,78.72
2019-03-21T09:02:45.975Z,78.81
2019-03-21T09:05:14.527Z,78.90
2019-03-21T09:07:43.025Z,78.99
2019-03-21T09:10:12.521Z,78.82
2019-03-21T09:12:42.655Z,78.39
2019-03-21T09:15:11.516Z,78.46
2019-03-21T09:17:39.990Z,78.38
2019-03-21T09:20:09.612Z,78.14
2019-03-21T09:22:38.163Z,78.21
2019-03-21T09:25:08.769Z,78.05
2019-03-21T09:27:37.246Z,77.80
2019-03-21T09:30:08.794Z,77.92
2019-03-21T09:32:37.259Z,77.78
2019-03-21T09:35:07.500Z,77.94
2019-03-21T09:37:36.003Z,77.99
2019-03-21T09:40:07.339Z,77.57
2019-03-21T09:42:35.815Z,76.93
2019-03-21T09:45:07.194Z,77.82
2019-03-21T09:47:35.678Z,77.13
2019-03-21T09:50:08.877Z,77.15
2019-03-21T09:52:37.351Z,76.77
2019-03-21T09:55:09.078Z,76.93
2019-03-21T09:57:37.586Z,77.39
2019-03-21T10:00:08.027Z,77.35
2019-03-21T10:02:36.500Z,77.08
2019-03-21T10:05:06.995Z,76.58
2019-03-21T10:07:35.456Z,77.06
2019-03-21T10:10:07.440Z,77.05
2019-03-21T10:12:35.963Z,76.96
2019-03-21T10:15:06.145Z,77.42
2019-03-21T10:17:34.627Z,77.27
2019-03-21T10:20:04.306Z,76.76
2019-03-21T10:22:32.785Z,77.05
2019-03-21T10:25:01.273Z,77.25
2019-03-21T10:27:29.755Z,76.95
2019-03-21T10:29:58.263Z,76.82
2019-03-21T10:32:26.722Z,77.02
2019-03-21T10:34:55.228Z,76.72
2019-03-21T10:37:23.731Z,76.68
2019-03-21T10:39:52.194Z,76.72
2019-03-21T10:42:20.703Z,76.68
2019-03-21T10:44:49.187Z,76.65
2019-03-21T10:47:17.692Z,76.37
2019-03-21T10:49:46.241Z,76.16
2019-03-21T10:52:14.735Z,76.24
2019-03-21T10:54:43.222Z,76.00
2019-03-21T10:57:11.699Z,75.92
2019-03-21T10:59:40.201Z,76.00
2019-03-21T11:02:08.692Z,75.87
2019-03-21T11:04:37.175Z,76.02
2019-03-21T11:07:04.529Z,75.98
2019-03-21T11:09:33.005Z,75.62
2019-03-21T11:12:01.494Z,75.50
2019-03-21T11:14:29.966Z,75.82
2019-03-21T11:16:58.460Z,75.30
2019-03-21T11:19:27.039Z,75.58
2019-03-21T11:22:05.716Z,75.33
2019-03-21T11:24:25.743Z,75.24
2019-03-21T11:26:54.214Z,75.12
2019-03-21T11:29:22.713Z,75.00
2019-03-21T11:31:51.251Z,74.71
2019-03-21T11:34:19.672Z,74.77
2019-03-21T11:36:48.161Z,74.78
2019-03-21T11:39:16.636Z,75.10
2019-03-21T11:41:45.131Z,74.77
2019-03-21T11:44:13.638Z,74.88
2019-03-21T11:46:42.149Z,74.82
2019-03-21T11:49:10.599Z,74.81
2019-03-21T11:51:39.095Z,74.52
2019-03-21T11:54:07.562Z,74.50
2019-03-21T11:56:36.076Z,74.01
2019-03-21T11:59:04.524Z,74.14
2019-03-21T12:01:33.015Z,73.76
2019-03-21T12:04:01.522Z,73.85
2019-03-21T12:06:30.023Z,74.12
2019-03-21T12:08:58.509Z,73.65
2019-03-21T12:11:27.000Z,73.51
2019-03-21T12:13:55.480Z,73.49
2019-03-21T12:16:23.969Z,73.80
2019-03-21T12:18:52.446Z,73.87
2019-03-21T12:21:20.933Z,73.85
2019-03-21T12:23:49.412Z,73.93
2019-03-21T12:26:17.896Z,74.14
2019-03-21T12:28:46.374Z,73.76
2019-03-21T12:31:14.861Z,73.80
2019-03-21T12:33:43.351Z,74.17
2019-03-21T12:36:11.813Z,73.99
2019-03-21T12:38:40.300Z,73.72
2019-03-21T12:41:08.776Z,73.68
2019-03-21T12:43:37.279Z,73.66
2019-03-21T12:46:05.913Z,73.73
2019-03-21T12:48:34.402Z,73.61
2019-03-21T12:51:02.883Z,73.51
2019-03-21T12:53:31.379Z,73.16
2019-03-21T12:55:59.848Z,72.97
2019-03-21T12:58:28.346Z,72.73
2019-03-21T13:00:56.805Z,73.14
2019-03-21T13:03:26.318Z,73.37
2019-03-21T13:05:54.862Z,73.08
2019-03-21T13:08:33.286Z,72.89
2019-03-21T13:10:53.552Z,72.96
2019-03-21T13:13:22.047Z,72.97
2019-03-21T13:15:50.530Z,73.00
2019-03-21T13:18:19.032Z,72.68
2019-03-21T13:20:47.501Z,73.23
2019-03-21T13:23:15.999Z,73.56
2019-03-21T13:25:44.464Z,73.21
2019-03-21T13:28:12.965Z,73.39
2019-03-21T13:30:41.443Z,73.26
2019-03-21T13:33:09.945Z,72.84
2019-03-21T13:35:38.415Z,73.05
2019-03-21T13:38:06.989Z,73.03
2019-03-21T13:40:35.456Z,73.05
2019-03-21T13:43:03.957Z,72.67
2019-03-21T13:45:32.435Z,72.72
2019-03-21T13:48:00.932Z,72.51
2019-03-21T13:50:29.489Z,72.64
2019-03-21T13:53:04.663Z,72.54
2019-03-21T13:55:28.156Z,72.53
2019-03-21T13:57:56.764Z,72.37
2019-03-21T14:00:25.231Z,72.82
2019-03-21T14:02:53.702Z,72.74
2019-03-21T14:05:22.190Z,73.06
2019-03-21T14:07:50.656Z,72.84
2019-03-21T14:10:19.141Z,72.72
2019-03-21T14:12:47.712Z,72.44
2019-03-21T14:15:17.544Z,72.46
2019-03-21T14:17:46.020Z,72.32
2019-03-21T14:20:16.052Z,72.22
2019-03-21T14:22:44.516Z,72.37
2019-03-21T14:25:13.653Z,72.51
2019-03-21T14:27:42.136Z,72.24
2019-03-21T14:30:13.179Z,72.06
2019-03-21T14:32:41.655Z,71.92
2019-03-21T14:35:10.520Z,71.80
2019-03-21T14:37:38.999Z,71.90
2019-03-21T14:40:12.832Z,72.03
2019-03-21T14:42:41.817Z,71.93
2019-03-21T14:45:13.301Z,72.07
2019-03-21T14:47:41.787Z,72.07
2019-03-21T14:50:13.319Z,72.01
2019-03-21T14:52:41.792Z,72.50
2019-03-21T14:55:12.178Z,72.20
2019-03-21T14:57:40.664Z,71.66
2019-03-21T15:00:19.872Z,72.00
2019-03-21T15:02:48.342Z,71.96
2019-03-21T15:05:16.968Z,71.72
2019-03-21T15:07:45.519Z,71.68
2019-03-21T15:10:18.705Z,71.65
2019-03-21T15:12:47.167Z,71.78
2019-03-21T15:15:16.598Z,71.67
2019-03-21T15:17:45.076Z,71.87
2019-03-21T15:20:16.151Z,72.31
2019-03-21T15:22:44.801Z,71.74
2019-03-21T15:25:14.133Z,71.87
2019-03-21T15:27:42.677Z,71.78
2019-03-21T15:30:17.070Z,71.54
2019-03-21T15:32:45.899Z,71.61
2019-03-21T15:35:16.532Z,71.83
2019-03-21T15:37:45.008Z,72.02
2019-03-21T15:40:15.954Z,71.83
2019-03-21T15:42:44.568Z,71.75
2019-03-21T15:45:22.950Z,71.66
2019-03-21T15:47:48.638Z,71.52
2019-03-21T15:50:38.031Z,71.79
2019-03-21T15:53:07.028Z,71.40
2019-03-21T15:55:35.661Z,71.23
2019-03-21T15:58:04.479Z,71.28
2019-03-21T16:00:35.274Z,71.91
2019-03-21T16:03:05.194Z,71.60
2019-03-21T16:05:33.851Z,71.51
2019-03-21T16:08:02.328Z,71.85
2019-03-21T16:10:30.831Z,71.96
2019-03-21T16:12:59.310Z,71.59
2019-03-21T16:15:27.802Z,71.36
2019-03-21T16:17:56.343Z,72.23
2019-03-21T16:20:25.179Z,71.85
2019-03-21T16:22:53.661Z,72.66
2019-03-21T16:25:22.198Z,73.01
2019-03-21T16:27:50.661Z,72.31
2019-03-21T16:30:19.142Z,72.20
2019-03-21T16:32:47.625Z,72.77
2019-03-21T16:35:16.111Z,72.21
2019-03-21T16:37:44.650Z,72.29
2019-03-21T16:40:16.515Z,72.50
2019-03-21T16:42:45.004Z,72.90
2019-03-21T16:45:14.904Z,72.53
2019-03-21T16:47:43.403Z,72.39
2019-03-21T16:50:13.509Z,72.55
2019-03-21T16:52:42.083Z,73.13
2019-03-21T16:55:12.112Z,73.07
2019-03-21T16:57:40.605Z,72.72
2019-03-21T17:00:19.972Z,73.07
2019-03-21T17:02:48.626Z,72.92
2019-03-21T17:05:17.101Z,72.83
2019-03-21T17:07:45.594Z,72.78
2019-03-21T17:10:15.665Z,72.84
2019-03-21T17:12:44.207Z,72.83
2019-03-21T17:15:13.431Z,73.18
2019-03-21T17:17:41.906Z,74.45
2019-03-21T17:20:16.216Z,74.24
2019-03-21T17:22:44.728Z,73.70
2019-03-21T17:25:13.902Z,73.87
2019-03-21T17:27:42.403Z,73.71
2019-03-21T17:30:13.519Z,73.62
2019-03-21T17:32:42.081Z,74.43
2019-03-21T17:35:10.621Z,73.85
2019-03-21T17:37:39.123Z,73.93
2019-03-21T17:40:09.675Z,74.13
2019-03-21T17:42:38.268Z,74.51
2019-03-21T17:45:12.779Z,75.80
2019-03-21T17:47:41.270Z,74.51
2019-03-21T17:50:11.511Z,74.93
2019-03-21T17:52:39.999Z,74.93
2019-03-21T17:55:08.475Z,75.67
2019-03-21T17:57:36.957Z,75.39
2019-03-21T18:00:18.305Z,74.96
2019-03-21T18:02:47.067Z,74.94
2019-03-21T18:05:15.542Z,74.83
2019-03-21T18:07:44.044Z,75.01
2019-03-21T18:10:26.888Z,76.51
2019-03-21T18:12:55.634Z,76.64
2019-03-21T18:15:24.272Z,75.64
2019-03-21T18:17:52.947Z,76.51
2019-03-21T18:20:21.485Z,77.00
2019-03-21T18:22:49.988Z,75.85
2019-03-21T18:25:18.454Z,76.18
2019-03-21T18:27:46.958Z,76.30
2019-03-21T18:30:15.963Z,76.54
2019-03-21T18:32:44.449Z,76.66
2019-03-21T18:35:13.367Z,76.46
2019-03-21T18:37:41.956Z,77.64
2019-03-21T18:40:11.968Z,78.03
2019-03-21T18:42:40.453Z,76.66
2019-03-21T18:45:12.161Z,76.93
2019-03-21T18:47:40.666Z,76.84
2019-03-21T18:50:12.001Z,77.66
2019-03-21T18:52:40.489Z,79.72
2019-03-21T18:55:09.598Z,77.58
2019-03-21T18:57:38.100Z,77.78
2019-03-21T19:00:14.983Z,77.66
2019-03-21T19:02:43.489Z,77.89
2019-03-21T19:05:11.949Z,78.01
2019-03-21T19:07:40.456Z,77.91
2019-03-21T19:10:13.754Z,78.14
2019-03-21T19:12:42.299Z,77.92
2019-03-21T19:15:15.763Z,78.39
2019-03-21T19:17:44.384Z,78.00
2019-03-21T19:20:16.006Z,79.94
2019-03-21T19:22:44.481Z,78.59
2019-03-21T19:25:19.125Z,78.32
2019-03-21T19:27:44.115Z,78.29
2019-03-21T19:30:20.561Z,78.35
2019-03-21T19:32:49.108Z,81.10
2019-03-21T19:35:17.586Z,80.22
2019-03-21T19:37:46.139Z,80.18
2019-03-21T19:40:17.076Z,80.56
2019-03-21T19:42:45.557Z,81.74
2019-03-21T19:45:15.981Z,80.10
2019-03-21T19:47:44.454Z,79.58
2019-03-21T19:50:15.901Z,80.96
2019-03-21T19:52:44.368Z,80.25
2019-03-21T19:55:13.033Z,81.29
2019-03-21T19:57:41.517Z,81.45
2019-03-21T20:00:18.606Z,82.32
2019-03-21T20:02:47.080Z,81.37
2019-03-21T20:05:15.818Z,80.80
2019-03-21T20:07:44.618Z,81.08
2019-03-21T20:10:15.654Z,80.66
2019-03-21T20:12:44.190Z,80.92
2019-03-21T20:15:17.111Z,80.76
2019-03-21T20:17:45.577Z,80.66
2019-03-21T20:20:15.813Z,80.96
2019-03-21T20:22:44.457Z,81.51
2019-03-21T20:25:13.324Z,81.39
2019-03-21T20:27:41.964Z,81.33
2019-03-21T20:30:13.744Z,81.84
2019-03-21T20:32:42.220Z,81.63
2019-03-21T20:35:11.148Z,81.95
2019-03-21T20:37:39.625Z,82.51
2019-03-21T20:40:10.869Z,83.82
2019-03-21T20:42:39.327Z,82.84
2019-03-21T20:45:10.734Z,82.62
2019-03-21T20:47:39.211Z,82.36
2019-03-21T20:50:09.139Z,82.86
2019-03-21T20:52:37.618Z,82.42
2019-03-21T20:55:09.701Z,82.21
2019-03-21T20:57:38.163Z,82.61
2019-03-21T21:00:09.889Z,82.29
2019-03-21T21:02:38.347Z,82.48
2019-03-21T21:05:07.190Z,82.49
2019-03-21T21:07:35.661Z,83.74
2019-03-21T21:10:06.311Z,83.23
2019-03-21T21:12:34.776Z,83.48
2019-03-21T21:15:03.950Z,83.11
2019-03-21T21:17:32.430Z,83.51
2019-03-21T21:20:00.881Z,84.83
2019-03-21T21:22:29.378Z,84.55
2019-03-21T21:24:58.053Z,84.36
2019-03-21T21:27:26.535Z,83.72
2019-03-21T21:29:55.049Z,84.74
2019-03-21T21:32:23.537Z,85.96
2019-03-21T21:34:54.468Z,84.97
2019-03-21T21:37:22.234Z,85.23
2019-03-21T21:39:50.827Z,84.29
2019-03-21T21:42:19.281Z,86.50
2019-03-21T21:44:48.327Z,84.90
2019-03-21T21:47:16.844Z,84.51
2019-03-21T21:49:45.329Z,84.49
2019-03-21T21:52:13.845Z,84.49
2019-03-21T21:54:42.321Z,84.13
2019-03-21T21:57:10.826Z,85.42
2019-03-21T21:59:39.312Z,85.63
2019-03-21T22:02:07.796Z,85.05
2019-03-21T22:04:36.276Z,86.51
2019-03-21T22:07:04.770Z,85.20
2019-03-21T22:09:33.264Z,85.49
2019-03-21T22:12:01.780Z,85.46
2019-03-21T22:14:30.260Z,85.97
2019-03-21T22:16:58.761Z,85.00
2019-03-21T22:19:27.240Z,87.00
2019-03-21T22:21:55.743Z,85.95
2019-03-21T22:24:24.228Z,85.73
2019-03-21T22:26:52.820Z,85.29
2019-03-21T22:29:21.291Z,85.05
2019-03-21T22:31:51.829Z,85.97
2019-03-21T22:34:20.308Z,85.66
2019-03-21T22:36:49.814Z,85.73
2019-03-21T22:39:18.398Z,86.33
2019-03-21T22:41:46.914Z,85.91
2019-03-21T22:44:15.465Z,86.00
2019-03-21T22:46:43.957Z,85.39
2019-03-21T22:49:12.437Z,85.76
2019-03-21T22:51:40.943Z,86.93
2019-03-21T22:54:09.425Z,86.71
2019-03-21T22:56:41.539Z,88.35
2019-03-21T22:59:08.150Z,86.74
2019-03-21T23:01:36.629Z,86.43
2019-03-21T23:04:05.209Z,86.57
2019-03-21T23:06:33.733Z,86.00
2019-03-21T23:09:02.180Z,86.05
2019-03-21T23:11:30.654Z,87.69
2019-03-21T23:13:59.218Z,86.43
2019-03-21T23:16:27.709Z,86.71
2019-03-21T23:18:56.199Z,86.08
2019-03-21T23:21:24.795Z,87.26
2019-03-21T23:23:53.295Z,87.46
2019-03-21T23:26:21.785Z,88.54
2019-03-21T23:28:50.278Z,87.48
2019-03-21T23:31:18.759Z,87.92
2019-03-21T23:33:47.254Z,88.24
2019-03-21T23:36:15.736Z,88.18
2019-03-21T23:38:44.236Z,87.52
2019-03-21T23:41:12.716Z,87.84
2019-03-21T23:43:41.227Z,87.46
2019-03-21T23:46:09.740Z,88.16
2019-03-21T23:48:38.210Z,89.64
2019-03-21T23:51:06.678Z,88.51
2019-03-21T23:53:35.201Z,88.19
2019-03-21T23:56:03.666Z,87.35
2019-03-21T23:58:32.195Z,87.03
